Αναφορές METAR από Ελληνικά Αεροδρόμια

Σε αυτή τη σελίδα, μπορείτε να παρακολουθείτε τις αναφορές METAR που προέρχονται από τα κυριότερα αεροδρόμια της Ελλάδας. Το περιεχόμενο αποκωδικοποιείται, οπτικοποιείται και γίνεται κατανοητό από τον καθένα με τη χρήση του όμορφου δίγλωσσου γραφικού περιβάλλοντος του meteothes.gr!

Η αρχική κωδικοποιημένη αναφορά, συμπεριλαμβάνεται επίσης στο κάτω μέρος. Σε όποια καθεστερεί η ενημέρωση, το προειδοποιητικό μήνυμα "Μη ενημερωμένο METAR!" εμφανίζεται στο πάνω μέρος της με κόκκινα γράμματα.

Εχουν προστεθεί επίσης δύο αεροδρόμια από γειτονικές χώρες, την Οχρίδα(ΠΓΔΜ) και την Σόφια(Βουλγαρία) για να ελέγχουμε την εξέλιξη των ψυχρών εισβολών από τα Βόρεια!

LGTS - Thessaloniki/Makedonia-Elev 7m
Απόσταση από meteothes.gr: Ν 13km
Ενημερώθηκε: 24/10/2017 04:50
Διάσπαρτα Nέφη
Διάσπαρτα Nέφη
 Ανεμος από Β
Ανεμος: Β 22 km/h
Θερμοκρασία: 13°C
Σημ. Δρόσου: 6°C
Υγρασία: 63%
Βαρόμετρο: 999 hPa
Νέφωση: Διάσπαρτα Nέφη
Ορατότητα: 10 km
Λεπτομέρειες Νεφών: Διάσπαρτα Nέφη 610 m
2017/10/24 01:50 LGTS 240150Z 35012KT 9999 FEW020 13/06 Q0999 NOSIG
LGAV - Athens/Elef. Venizelos-Elev 94m
Απόσταση από meteothes.gr: ΝΝΑ 312km
Ενημερώθηκε: 24/10/2017 04:50
Μερικώς νεφελώδης
Μερικώς νεφελώδης
 Ανεμος από ΝΔ
Ανεμος: ΝΔ 7 km/h
Θερμοκρασία: 15°C
Σημ. Δρόσου: 11°C
Υγρασία: 77%
Βαρόμετρο: 1001 hPa
Νέφωση: Μερικώς νεφελώδης
Ορατότητα: 10 km
Λεπτομέρειες Νεφών: Μερικώς νεφελώδης 914 m
2017/10/24 01:50 LGAV 240150Z 23004KT 9999 SCT030 15/11 Q1001 NOSIG
 
LGAL - Alexandroupolis-Elev 3m
Απόσταση από meteothes.gr: Α 251km
Ενημερώθηκε: 24/10/2017 04:50
Light thunderstorm, Βροχή, Συννεφιά
Light thunderstorm, Βροχή, Συννεφιά
 Ανεμος από ΑΒΑ
Ανεμος: ΑΒΑ 13 km/h
Θερμοκρασία: 15°C
Σημ. Δρόσου: 15°C
Υγρασία: 100%
Βαρόμετρο: 999 hPa
Συνθήκες: Light thunderstorm, Βροχή
Νέφωση: Συννεφιά
Ορατότητα: 7 km
Λεπτομέρειες Νεφών: Διάσπαρτα Nέφη 549 m
κυρίως νεφελώδης 610 m
Συννεφιά 1829 m
2017/10/24 01:50 LGAL 240150Z 06007KT 7000 -TSRA FEW018CB BKN020 OVC060 15/15 Q0999
LGKV - Kavala/Crysoupolis-Elev 5m
Απόσταση από meteothes.gr: ΑΒΑ 144km
Ενημερώθηκε: 24/10/2017 04:50
Ασθενής βροχή, κυρίως νεφελώδης
Ασθενής βροχή, κυρίως νεφελώδης
 Ανεμος από ΝΑ
Ανεμος: ΝΑ 9 km/h
Θερμοκρασία: 13°C
Σημ. Δρόσου: 12°C
Υγρασία: 94%
Βαρόμετρο: 997 hPa
Συνθήκες: Ασθενής βροχή
Νέφωση: κυρίως νεφελώδης
Ορατότητα: 10 km
Λεπτομέρειες Νεφών: Διάσπαρτα Nέφη 457 m
Μερικώς νεφελώδης 762 m
κυρίως νεφελώδης 2438 m
2017/10/24 01:50 LGKV 240150Z 14005KT 9999 -RA FEW015 SCT025 BKN080 13/12 Q0997
 
LGSK - Skiathos Island-Elev 15m
Απόσταση από meteothes.gr: ΝΝΑ 168km
Ενημερώθηκε: 24/10/2017 04:50
Διάσπαρτα Nέφη
Διάσπαρτα Nέφη
 Ανεμος από άπνοια
Ανεμος: άπνοια
Θερμοκρασία: 15°C
Σημ. Δρόσου: 11°C
Υγρασία: 77%
Βαρόμετρο: 1000 hPa
Νέφωση: Διάσπαρτα Nέφη
Ορατότητα: 10 km
Λεπτομέρειες Νεφών: Διάσπαρτα Nέφη 610 m
2017/10/24 01:50 LGSK 240150Z 00000KT 9999 FEW020 15/11 Q1000
LGLM - Limnos Island-Elev 5m
Απόσταση από meteothes.gr: ΑΝΑ 210km
Ενημερώθηκε: 24/10/2017 04:50
Μερικώς νεφελώδης
Μερικώς νεφελώδης
 Ανεμος από Ν
Ανεμος: Ν 15 km/h
Θερμοκρασία: 16°C
Σημ. Δρόσου: 15°C
Υγρασία: 94%
Βαρόμετρο: 999 hPa
Νέφωση: Μερικώς νεφελώδης
Ορατότητα: 10 km
Λεπτομέρειες Νεφών: Διάσπαρτα Nέφη 549 m
Μερικώς νεφελώδης 762 m
2017/10/24 01:50 LGLM 240150Z 18008KT 9999 FEW018TCU SCT025 16/15 Q0999 RETS
 
LGMT - Mitilini Island-Elev 17m
Απόσταση από meteothes.gr: ΑΝΑ 358km
Ενημερώθηκε: 24/10/2017 04:50
Μερικώς νεφελώδης
Μερικώς νεφελώδης
 Ανεμος από ΝΝΑ
Ανεμος: ΝΝΑ 37 km/h
Θερμοκρασία: 20°C
Σημ. Δρόσου: 17°C
Υγρασία: 83%
Βαρόμετρο: 1003 hPa
Νέφωση: Μερικώς νεφελώδης
Ορατότητα: 10 km
Λεπτομέρειες Νεφών: Διάσπαρτα Nέφη 549 m
Μερικώς νεφελώδης 762 m
2017/10/24 01:50 LGMT 240150Z 16020KT 120V230 9999 FEW018TCU SCT025 20/17 Q1003
LGSY - Skiros Island-Elev 15m
Απόσταση από meteothes.gr: ΝΑ 227km
Ενημερώθηκε: 24/10/2017 03:50
ΜΗ Ενημερωμένο METAR!
Μερικώς νεφελώδης
Μερικώς νεφελώδης
 Ανεμος από Ν
Ανεμος: Ν 15 km/h
Θερμοκρασία: 17°C
Σημ. Δρόσου: 14°C
Υγρασία: 83%
Βαρόμετρο: 998 hPa
Νέφωση: Μερικώς νεφελώδης
Ορατότητα: 10 km
Λεπτομέρειες Νεφών: Διάσπαρτα Nέφη 396 m
Μερικώς νεφελώδης 762 m
2017/10/24 00:50 LGSY 240050Z 18008KT 9999 FEW013 SCT025 17/14 Q0998 RMK BKN080 BLU
 
LGKZ - Kozani-Elev 628m
Απόσταση από meteothes.gr: ΔΝΔ 102km
Ενημερώθηκε: 23/10/2017 20:50
ΜΗ Ενημερωμένο METAR!
Καταιγίδα με βροχή, Συννεφιά
Καταιγίδα με βροχή, Συννεφιά
 Ανεμος από Δ
Ανεμος: Δ 11 km/h
Θερμοκρασία: 11°C
Σημ. Δρόσου: 8°C
Υγρασία: 82%
Βαρόμετρο: 1004 hPa
Συνθήκες: Thunderstorm Rain
Νέφωση: Συννεφιά
Ορατότητα: 10 km
Λεπτομέρειες Νεφών: Διάσπαρτα Nέφη 610 m
κυρίως νεφελώδης 762 m
Συννεφιά 2134 m
2017/10/23 17:50 LGKZ 231750Z 26006KT 9999 TSRA FEW020CB BKN025 OVC070 11/08 Q1004
LGIO - Ioannina-Elev 476m
Απόσταση από meteothes.gr: ΔΝΔ 209km
Ενημερώθηκε: 23/10/2017 22:20
ΜΗ Ενημερωμένο METAR!
Ασθενής βροχή, κυρίως νεφελώδης
Ασθενής βροχή, κυρίως νεφελώδης
 Ανεμος από μεταβλητός
Ανεμος: μεταβλητός 0 km/h
Θερμοκρασία: 9°C
Σημ. Δρόσου: 9°C
Υγρασία: 100%
Βαρόμετρο: 1005 hPa
Συνθήκες: Ασθενής βροχή
Νέφωση: κυρίως νεφελώδης
Ορατότητα: 7 km
Λεπτομέρειες Νεφών: Διάσπαρτα Nέφη 305 m
κυρίως νεφελώδης 1067 m
2017/10/23 19:20 LGIO 231920Z /////KT 7000 -RA FEW010 BKN035 09/09 Q1005
 
LGZA - Zakinthos-Elev 3m
Απόσταση από meteothes.gr: ΝΝΔ 367km
Ενημερώθηκε: 24/10/2017 04:50
κυρίως νεφελώδης
κυρίως νεφελώδης
 Ανεμος από ΔΒΔ
Ανεμος: ΔΒΔ 7 km/h
Θερμοκρασία: 15°C
Σημ. Δρόσου: 13°C
Υγρασία: 88%
Βαρόμετρο: 1003 hPa
Νέφωση: κυρίως νεφελώδης
Ορατότητα: 10 km
Λεπτομέρειες Νεφών: Διάσπαρτα Nέφη 549 m
Μερικώς νεφελώδης 610 m
κυρίως νεφελώδης 2134 m
2017/10/24 01:50 LGZA 240150Z 30004KT 9999 FEW018TCU SCT020 BKN070 15/13 Q1003
LGKR - Corfu Island-Elev 2m
Απόσταση από meteothes.gr: ΔΝΔ 282km
Ενημερώθηκε: 24/10/2017 04:50
Ασθενής βροχή, κυρίως νεφελώδης
Ασθενής βροχή, κυρίως νεφελώδης
 Ανεμος από ΔΒΔ
Ανεμος: ΔΒΔ 22 km/h
Θερμοκρασία: 13°C
Σημ. Δρόσου: 11°C
Υγρασία: 88%
Βαρόμετρο: 1002 hPa
Συνθήκες: Ασθενής βροχή
Νέφωση: κυρίως νεφελώδης
Ορατότητα: 10 km
Λεπτομέρειες Νεφών: Μερικώς νεφελώδης 457 m
Μερικώς νεφελώδης 762 m
κυρίως νεφελώδης 2438 m
2017/10/24 01:50 LGKR 240150Z 30012KT 9999 -RA SCT015TCU SCT025 BKN080 13/11 Q1002 NOSIG
 
LGSO - Syros Island-Elev 72m
Απόσταση από meteothes.gr: ΝΝΑ 397km
Ενημερώθηκε: 23/10/2017 11:50
ΜΗ Ενημερωμένο METAR!
Μερικώς νεφελώδης
Μερικώς νεφελώδης
 Ανεμος από Ν
Ανεμος: Ν 24 km/h
Θερμοκρασία: 22°C
Σημ. Δρόσου: 19°C
Υγρασία: 83%
Βαρόμετρο: 1009 hPa
Νέφωση: Μερικώς νεφελώδης
Ορατότητα: 10 km
Λεπτομέρειες Νεφών: Μερικώς νεφελώδης 366 m
2017/10/23 08:50 LGSO 230850Z 18013KT 9999 SCT012 22/19 Q1009
LGMK - Mikonos Island-Elev 123m
Απόσταση από meteothes.gr: ΝΝΑ 412km
Ενημερώθηκε: 24/10/2017 04:50
Μερικώς νεφελώδης
Μερικώς νεφελώδης
 Ανεμος από Ν
Ανεμος: Ν 20 km/h
Θερμοκρασία: 19°C
Σημ. Δρόσου: 16°C
Υγρασία: 83%
Βαρόμετρο: 1002 hPa
Νέφωση: Μερικώς νεφελώδης
Ορατότητα: 10 km
Λεπτομέρειες Νεφών: Διάσπαρτα Nέφη 549 m
Μερικώς νεφελώδης 762 m
2017/10/24 01:50 LGMK 240150Z 19011KT 9999 FEW018TCU SCT025 19/16 Q1002
 
LGSR - Santorini Island-Elev 40m
Απόσταση από meteothes.gr: ΝΝΑ 520km
Ενημερώθηκε: 24/10/2017 04:50
Ασθενής βροχή, Μερικώς νεφελώδης
Ασθενής βροχή, Μερικώς νεφελώδης
 Ανεμος από ΝΔ
Ανεμος: ΝΔ 24 km/h
Θερμοκρασία: 20°C
Σημ. Δρόσου: 17°C
Υγρασία: 83%
Βαρόμετρο: 1003 hPa
Συνθήκες: Ασθενής βροχή
Νέφωση: Μερικώς νεφελώδης
Ορατότητα: 10 km
Λεπτομέρειες Νεφών: Διάσπαρτα Nέφη 488 m
Μερικώς νεφελώδης 610 m
2017/10/24 01:50 LGSR 240150Z 22013KT 9999 -RA FEW016TCU SCT020 20/17 Q1003
LGKL - Kalamata-Elev 8m
Απόσταση από meteothes.gr: Ν 405km
Ενημερώθηκε: 24/10/2017 04:50
Ασθενής βροχή, κυρίως νεφελώδης
Ασθενής βροχή, κυρίως νεφελώδης
 Ανεμος από άπνοια
Ανεμος: άπνοια
Θερμοκρασία: 13°C
Σημ. Δρόσου: 11°C
Υγρασία: 88%
Βαρόμετρο: 1004 hPa
Συνθήκες: Ασθενής βροχή
Νέφωση: κυρίως νεφελώδης
Ορατότητα: 10 km
Λεπτομέρειες Νεφών: Διάσπαρτα Nέφη 427 m
Μερικώς νεφελώδης 762 m
κυρίως νεφελώδης 2438 m
2017/10/24 01:50 LGKL 240150Z 00000KT 9999 -RA FEW014 SCT025 BKN080 13/11 Q1004
 
LGIR - Iraklion/Crete-Elev 5m
Απόσταση από meteothes.gr: ΝΝΑ 622km
Ενημερώθηκε: 24/10/2017 04:50
κυρίως νεφελώδης
κυρίως νεφελώδης
 Ανεμος από ΝΔ
Ανεμος: ΝΔ 9 km/h
Θερμοκρασία: 19°C
Σημ. Δρόσου: 16°C
Υγρασία: 83%
Βαρόμετρο: 1004 hPa
Νέφωση: κυρίως νεφελώδης
Ορατότητα: 10 km
Λεπτομέρειες Νεφών: Διάσπαρτα Nέφη 610 m
Μερικώς νεφελώδης 762 m
κυρίως νεφελώδης 2743 m
2017/10/24 01:50 LGIR 240150Z 23005KT 9999 FEW020 SCT025 BKN090 19/16 Q1004 NOSIG
LGRP - Rhodes-Elev 5m
Απόσταση από meteothes.gr: ΝΑ 649km
Ενημερώθηκε: 24/10/2017 04:50
Διάσπαρτα Nέφη
Διάσπαρτα Nέφη
 Ανεμος από ΑΝΑ
Ανεμος: ΑΝΑ 11 km/h
Θερμοκρασία: 21°C
Σημ. Δρόσου: 17°C
Υγρασία: 78%
Βαρόμετρο: 1006 hPa
Νέφωση: Διάσπαρτα Nέφη
Ορατότητα: 10 km
Λεπτομέρειες Νεφών: Διάσπαρτα Nέφη 762 m
2017/10/24 01:50 LGRP 240150Z 11006KT 080V150 9999 FEW025 21/17 Q1006 NOSIG
 
LWOH - Ohrid/FYROM-Elev 761m
Απόσταση από meteothes.gr: ΔΒΔ 188km
Ενημερώθηκε: 23/10/2017 20:00
ΜΗ Ενημερωμένο METAR!
κυρίως νεφελώδης
κυρίως νεφελώδης
 Ανεμος από Β
Ανεμος: Β 6 km/h
Θερμοκρασία: 8°C
Σημ. Δρόσου: 6°C
Υγρασία: 87%
Βαρόμετρο: 1004 hPa
Νέφωση: κυρίως νεφελώδης
Ορατότητα: 10 km
Λεπτομέρειες Νεφών: Διάσπαρτα Nέφη 610 m
κυρίως νεφελώδης 1219 m
2017/10/23 17:00 LWOH 231700Z 01003KT 9999 FEW020 BKN040 08/06 Q1004
LBSF - Sofia/Bulgaria-Elev 595m
Απόσταση από meteothes.gr: Β 227km
Ενημερώθηκε: 24/10/2017 05:00
Συννεφιά
Συννεφιά
 Ανεμος από Δ
Ανεμος: Δ 22 km/h
Θερμοκρασία: 8°C
Αίσθηση Ψύχρας: 4°C
Σημ. Δρόσου: 7°C
Υγρασία: 93%
Βαρόμετρο: 1002 hPa
Νέφωση: Συννεφιά
Ορατότητα: 10 km
Λεπτομέρειες Νεφών: Συννεφιά 244 m
2017/10/24 02:00 LBSF 240200Z 26012KT 9999 OVC008 08/07 Q1002 NOSIG

(*) Μερικές αναφορές παρουσιάζουν λιγότερα στοιχεία γιατί οι αρχικές είναι ελλιπείς ή έχουν λάθος μορφοποίηση!